createdAt,value
2022-08-18T06:11:31.362Z,100472.25
2022-08-18T06:16:45.242Z,100477.47
2022-08-18T06:19:29.625Z,100477.63
2022-08-18T06:22:09.231Z,100476.84
2022-08-18T06:24:42.960Z,100477.00
2022-08-18T06:27:19.362Z,100479.31
2022-08-18T06:29:59.572Z,100487.53
2022-08-18T06:32:47.667Z,100491.16
2022-08-18T06:35:25.587Z,100492.28
2022-08-18T12:33:12.791Z,100473.91
2022-08-18T12:35:41.809Z,100472.91
2022-08-18T12:38:13.725Z,100477.44
2022-08-18T12:40:44.222Z,100472.91
2022-08-18T12:44:18.399Z,100485.63
2022-08-18T12:46:49.187Z,100483.41
2022-08-18T12:49:19.406Z,100499.38
2022-08-18T12:51:50.245Z,100497.50
2022-08-18T12:54:20.167Z,100502.75
2022-08-18T12:56:51.468Z,100504.16
2022-08-18T13:00:55.566Z,100508.22
2022-08-18T13:03:24.922Z,100519.66
2022-08-18T13:05:55.954Z,100510.06
2022-08-18T13:08:30.348Z,100505.97
2022-08-18T13:11:15.082Z,100508.94
2022-08-18T13:13:56.480Z,100503.78
2022-08-18T13:18:49.079Z,100492.31
2022-08-18T13:21:18.465Z,100473.34
2022-08-18T13:23:46.893Z,100469.06
2022-08-18T13:26:21.678Z,100470.69
2022-08-18T13:28:57.005Z,100463.03
2022-08-18T13:31:26.805Z,100467.53
2022-08-18T13:33:59.419Z,100471.72
2022-08-18T13:36:44.361Z,100468.69
2022-08-18T13:39:15.368Z,100472.44
2022-08-18T13:41:45.638Z,100475.94
2022-08-18T13:44:18.480Z,100469.09
2022-08-18T13:46:48.079Z,100472.59
2022-08-18T13:49:23.831Z,100465.22
2022-08-18T13:52:00.869Z,100448.75
2022-08-18T13:54:35.444Z,100439.00
2022-08-18T13:57:04.234Z,100447.56
2022-08-18T13:59:34.138Z,100445.84
2022-08-18T14:02:05.904Z,100443.09
2022-08-18T14:04:38.781Z,100436.28
2022-08-18T14:07:10.974Z,100445.03
2022-08-18T14:09:40.376Z,100438.91
2022-08-18T14:12:15.358Z,100437.66
2022-08-18T14:14:44.198Z,100432.56
2022-08-18T14:17:12.328Z,100428.91
2022-08-18T14:19:58.850Z,100426.94
2022-08-18T14:22:44.627Z,100415.34
2022-08-18T14:25:30.058Z,100413.50
2022-08-18T14:27:59.045Z,100409.91
2022-08-18T14:30:32.225Z,100402.50
2022-08-18T14:33:00.321Z,100407.63
2022-08-18T14:35:33.979Z,100423.78
2022-08-18T14:38:18.158Z,100421.03
2022-08-18T14:40:47.302Z,100423.44
2022-08-18T14:43:16.675Z,100426.44
2022-08-18T14:45:48.928Z,100415.97
2022-08-18T14:48:19.114Z,100416.31
2022-08-18T14:50:50.536Z,100401.31
2022-08-18T14:53:20.094Z,100412.97
2022-08-18T14:55:52.155Z,100406.50
2022-08-18T14:58:20.258Z,100415.66
2022-08-18T15:00:53.416Z,100418.19
2022-08-18T15:03:30.847Z,100418.41
2022-08-18T15:06:04.749Z,100405.56
2022-08-18T15:08:34.251Z,100407.97
2022-08-18T15:11:06.048Z,100406.41
2022-08-18T15:13:40.421Z,100414.94
2022-08-18T15:16:13.642Z,100408.59
2022-08-18T15:18:41.684Z,100408.59
2022-08-18T15:21:35.584Z,100404.22
2022-08-18T15:24:24.969Z,100402.63
2022-08-18T15:26:57.752Z,100393.31
2022-08-18T15:29:27.974Z,100393.66
2022-08-18T15:32:02.115Z,100397.38
2022-08-18T15:34:46.217Z,100398.44
2022-08-18T15:37:19.578Z,100393.47
2022-08-18T15:39:51.883Z,100399.31
2022-08-18T15:42:24.649Z,100415.38
2022-08-18T15:44:53.546Z,100417.81
2022-08-18T15:47:22.058Z,100409.66
2022-08-18T15:49:54.773Z,100403.59
2022-08-18T15:52:24.516Z,100418.34
2022-08-18T15:54:55.789Z,100420.81
2022-08-18T15:57:39.051Z,100415.31
2022-08-18T16:00:12.102Z,100409.31
2022-08-18T16:02:40.688Z,100407.06
2022-08-18T16:05:14.157Z,100412.47
2022-08-18T16:07:45.976Z,100413.13
2022-08-18T16:10:14.379Z,100405.09
2022-08-18T16:12:46.299Z,100406.00
2022-08-18T16:15:15.414Z,100410.13
2022-08-18T16:17:47.764Z,100399.22
2022-08-18T16:20:15.833Z,100398.84
2022-08-18T16:22:45.076Z,100401.72
2022-08-18T16:25:12.958Z,100402.84
2022-08-18T16:27:42.560Z,100408.53
2022-08-18T16:30:12.168Z,100408.34
2022-08-18T16:32:39.991Z,100411.38
2022-08-18T16:35:08.457Z,100412.03
2022-08-18T16:37:36.202Z,100402.56
2022-08-18T16:40:06.754Z,100400.66
2022-08-18T16:42:34.590Z,100400.63
2022-08-18T16:45:03.942Z,100395.59
2022-08-18T16:47:33.558Z,100398.63
2022-08-18T16:50:01.256Z,100388.84
2022-08-18T16:52:41.969Z,100389.94
2022-08-18T16:55:13.038Z,100392.34
2022-08-18T16:58:00.020Z,100391.06
2022-08-18T17:00:45.927Z,100381.75
2022-08-18T17:03:41.222Z,100374.72
2022-08-18T17:06:11.413Z,100369.34
2022-08-18T17:08:40.359Z,100361.22
2022-08-18T17:11:12.553Z,100361.13
2022-08-18T17:13:41.179Z,100360.44
2022-08-18T17:16:09.498Z,100367.22
2022-08-18T17:18:38.167Z,100361.22
2022-08-18T17:21:07.701Z,100357.28
2022-08-18T17:23:38.991Z,100361.13
2022-08-18T17:26:14.217Z,100374.69
2022-08-18T17:28:50.440Z,100360.84
2022-08-18T17:31:20.742Z,100366.19
2022-08-18T17:33:48.955Z,100356.63
2022-08-18T17:36:24.169Z,100365.59
2022-08-18T17:38:57.294Z,100356.13
2022-08-18T17:41:27.729Z,100363.44
2022-08-18T17:43:57.098Z,100371.66
2022-08-18T17:46:29.481Z,100367.72
2022-08-18T17:49:01.923Z,100368.75
2022-08-18T17:51:34.351Z,100372.91
2022-08-18T17:54:13.051Z,100374.63
2022-08-18T17:56:47.291Z,100376.38
2022-08-18T17:59:50.800Z,100375.69
2022-08-18T18:02:19.052Z,100375.81
2022-08-18T18:04:57.100Z,100385.50
2022-08-18T18:07:28.199Z,100387.19
2022-08-18T18:10:00.509Z,100381.69
2022-08-18T18:12:34.618Z,100386.56
2022-08-18T18:15:04.732Z,100388.19
2022-08-18T18:17:37.656Z,100385.03
2022-08-18T18:20:16.338Z,100399.47
2022-08-18T18:22:45.970Z,100388.28
2022-08-18T18:25:30.279Z,100388.34
2022-08-18T18:28:04.215Z,100391.56
2022-08-18T18:30:33.931Z,100381.16
2022-08-18T18:33:03.912Z,100379.22
2022-08-18T18:35:34.200Z,100382.78
2022-08-18T18:38:04.936Z,100383.97
2022-08-18T18:40:37.171Z,100379.59
2022-08-18T18:43:28.877Z,100380.41
2022-08-18T18:46:09.886Z,100378.78
2022-08-18T18:48:51.872Z,100377.53
2022-08-18T18:51:33.621Z,100382.69
2022-08-18T18:54:10.708Z,100383.03
2022-08-18T18:56:45.639Z,100393.34
2022-08-18T18:59:23.442Z,100392.84
2022-08-18T19:02:01.546Z,100395.22
2022-08-18T19:04:36.871Z,100394.69
2022-08-18T19:07:20.969Z,100393.84
2022-08-18T19:09:58.193Z,100406.09
2022-08-18T19:12:30.686Z,100402.81
2022-08-18T19:15:06.522Z,100405.19
2022-08-18T19:17:42.517Z,100405.91
2022-08-18T19:20:14.421Z,100401.38
2022-08-18T19:22:47.450Z,100403.28
2022-08-18T19:25:20.541Z,100399.56
2022-08-18T19:27:53.152Z,100404.72
2022-08-18T19:30:23.233Z,100403.88
2022-08-18T19:32:54.536Z,100406.25
2022-08-18T19:35:35.191Z,100405.53
2022-08-18T19:38:15.497Z,100416.03
2022-08-18T19:40:49.433Z,100414.06
2022-08-18T19:43:27.531Z,100411.94
2022-08-18T19:46:03.735Z,100418.56
2022-08-18T19:48:39.442Z,100422.78
2022-08-18T19:51:12.367Z,100415.59
2022-08-18T19:53:55.167Z,100419.22
2022-08-18T19:56:37.005Z,100418.28
2022-08-18T19:59:35.137Z,100417.38
2022-08-18T20:02:17.924Z,100409.34
2022-08-18T20:05:03.814Z,100418.13
2022-08-18T20:07:54.791Z,100416.84
2022-08-18T20:10:36.999Z,100416.38
2022-08-18T20:13:24.791Z,100417.16
2022-08-18T20:16:11.862Z,100415.47
2022-08-18T20:18:42.880Z,100421.00
2022-08-18T20:21:39.873Z,100426.13
2022-08-18T20:24:18.699Z,100417.72
2022-08-18T20:26:50.335Z,100405.75
2022-08-18T20:29:21.607Z,100413.63
2022-08-18T20:31:59.942Z,100417.28
2022-08-18T20:34:29.964Z,100425.13
2022-08-18T20:37:00.258Z,100431.81
2022-08-18T20:39:35.518Z,100436.50
2022-08-18T20:42:04.770Z,100439.63
2022-08-18T20:44:58.518Z,100435.09
2022-08-18T20:47:58.708Z,100435.84
2022-08-18T20:50:52.039Z,100433.75
2022-08-18T20:53:42.235Z,100432.81
2022-08-18T20:56:32.572Z,100446.00
2022-08-18T20:59:18.305Z,100442.28
2022-08-18T21:01:58.501Z,100448.19
2022-08-18T21:04:41.174Z,100434.16
2022-08-18T21:07:19.497Z,100438.38
2022-08-18T21:10:12.840Z,100435.06
2022-08-18T21:12:52.608Z,100441.38
2022-08-18T21:15:24.351Z,100436.16
2022-08-18T21:18:02.051Z,100440.84
2022-08-18T21:20:31.512Z,100443.09
2022-08-18T21:23:07.693Z,100453.00
2022-08-18T21:25:36.389Z,100447.81
2022-08-18T21:28:07.110Z,100439.50
2022-08-18T21:30:35.105Z,100445.31
2022-08-18T21:33:20.843Z,100447.38
2022-08-18T21:35:48.943Z,100447.75
2022-08-18T21:38:26.901Z,100442.75
2022-08-18T21:40:59.161Z,100446.63
2022-08-18T21:43:42.362Z,100439.38
2022-08-18T21:46:24.275Z,100440.19
2022-08-18T21:48:54.794Z,100439.03
2022-08-18T21:51:25.202Z,100442.97
2022-08-18T21:53:55.311Z,100442.63
2022-08-18T21:59:07.133Z,100453.84
2022-08-18T22:01:37.651Z,100457.78
2022-08-18T22:04:18.858Z,100452.97
2022-08-18T22:06:52.469Z,100455.97
2022-08-18T22:09:41.277Z,100462.38
2022-08-18T22:12:42.001Z,100468.66
2022-08-18T22:15:12.104Z,100460.97
2022-08-18T22:17:51.718Z,100459.19
2022-08-18T22:20:40.527Z,100462.59
2022-08-18T22:23:44.155Z,100462.06
2022-08-18T22:26:18.453Z,100460.66
2022-08-18T22:29:03.873Z,100461.59
2022-08-18T22:31:33.095Z,100466.81
2022-08-18T22:34:04.586Z,100470.84
2022-08-18T22:36:36.128Z,100466.91
2022-08-18T22:39:05.214Z,100463.59
2022-08-18T22:41:38.425Z,100465.66
2022-08-18T22:44:06.933Z,100466.72
2022-08-18T22:46:36.185Z,100470.75
2022-08-18T22:49:04.449Z,100465.47
2022-08-18T22:51:36.269Z,100466.00
2022-08-18T22:54:06.401Z,100470.38
2022-08-18T22:56:35.771Z,100466.78
2022-08-18T22:59:13.819Z,100468.69
2022-08-18T23:01:46.829Z,100466.97
2022-08-18T23:04:16.938Z,100463.72
2022-08-18T23:06:52.220Z,100465.59
2022-08-18T23:09:22.444Z,100464.00
2022-08-18T23:11:50.275Z,100466.66
2022-08-18T23:14:20.212Z,100458.25
2022-08-18T23:16:47.998Z,100470.69
2022-08-18T23:19:16.388Z,100467.38
2022-08-18T23:21:45.153Z,100471.38
2022-08-18T23:24:15.312Z,100472.00
2022-08-18T23:26:43.439Z,100475.66
2022-08-18T23:29:12.443Z,100470.13
2022-08-18T23:31:43.558Z,100462.53
2022-08-18T23:34:13.163Z,100469.78
2022-08-18T23:36:45.622Z,100462.06
2022-08-18T23:39:14.594Z,100461.16
2022-08-18T23:41:42.794Z,100466.50
2022-08-18T23:44:11.425Z,100466.94
2022-08-18T23:46:39.712Z,100463.72
2022-08-18T23:49:10.811Z,100476.78
2022-08-18T23:51:45.037Z,100476.66
2022-08-18T23:54:18.846Z,100482.91
2022-08-18T23:56:47.255Z,100484.34
2022-08-18T23:59:16.666Z,100485.03
